Algosoo — VGJD — position and weather

sailwx.info

Track history (hours):
 
Tides and Currents Weather Stations Pressure Air Temp Water Temp Dewpoint Dewpoint Depression Visibility Wind Speed Wind Dir Waves Ship Positions

Algosoo

Last reported at 2015-Aug-22 11:33 UTC. Time now 2015-Aug-30 09:59 UTC.
Position N 42°23' W 080°27'.

Length 223 m; draft 8 m.

Type: Cargo ship. MMSI: 316001799.

Date/timePositionNaut miles runAvg speedWind from/ knotsBaromVisibWave heightAir tempDewpointWater temp
2015-Aug-22 11:33N 42°23' W 080°27'10 9.9
2015-Aug-22 10:30N 42°27' W 080°14'9 9.5
2015-Aug-22 09:33N 42°30' W 080°03'19 9.3
2015-Aug-22 07:29N 42°40' W 079°40'29 6.9
2015-Aug-22 03:19N 43°01' W 079°13'5 7.1
2015-Aug-22 02:33N 43°06' W 079°12'2 1.8
2015-Aug-22 01:33N 43°08' W 079°12'0 0.2
2015-Aug-22 00:33N 43°08' W 079°12'1 1.2
2015-Aug-21 23:33N 43°09' W 079°12'2 2.1
2015-Aug-21 22:33N 43°11' W 079°12'0 0.3
2015-Aug-21 21:33N 43°12' W 079°12'2 1.5
2015-Aug-21 20:33N 43°13' W 079°13'1 0.6
2015-Aug-21 19:34N 43°14' W 079°13'0 0.0
2015-Aug-21 18:33N 43°14' W 079°13'8 7.6
2015-Aug-21 17:33N 43°20' W 079°19'15 0.5
2015-Aug-20 11:10N 43°28' W 079°36'1 1.3
2015-Aug-20 10:23N 43°27' W 079°35'8 9.1
2015-Aug-20 09:33N 43°23' W 079°27'1010.3
2015-Aug-20 08:33N 43°16' W 079°16'4 4.0
2015-Aug-20 07:33N 43°13' W 079°13'1 1.5
2015-Aug-20 06:33N 43°12' W 079°12'1 1.5
2015-Aug-20 05:33N 43°10' W 079°12'1 0.9
2015-Aug-20 04:33N 43°09' W 079°12'1 1.1
2015-Aug-20 03:33N 43°08' W 079°12'0 0.3
2015-Aug-20 02:33N 43°08' W 079°12'1 0.5
2015-Aug-20 01:34N 43°07' W 079°12'2 1.9
2015-Aug-20 00:33N 43°06' W 079°12'34 4.7
2015-Aug-19 17:24N 42°37' W 079°38'910.7
2015-Aug-19 16:32N 42°32' W 079°48'1310.4
2015-Aug-19 15:14N 42°25' W 080°04'307 6.5
2015-Aug-17 16:05N 46°30' W 084°22'0 0.0
2015-Aug-17 15:30N 46°30' W 084°22'1 0.3
2015-Aug-17 12:26N 46°30' W 084°23'1 0.6
2015-Aug-17 11:33N 46°30' W 084°24'0 0.0
2015-Aug-17 10:32N 46°30' W 084°24'0 0.0
2015-Aug-16 20:21N 46°30' W 084°24'0 0.0
2015-Aug-16 19:30N 46°30' W 084°24'0 0.0
2015-Aug-16 18:28N 46°30' W 084°24'0 0.0
2015-Aug-16 17:25N 46°30' W 084°24'0 0.0
2015-Aug-16 14:31N 46°30' W 084°24'0 0.0
2015-Aug-16 13:27N 46°30' W 084°24'0 0.0
2015-Aug-16 12:32N 46°30' W 084°24'0 0.0
2015-Aug-16 11:33N 46°30' W 084°24'0 0.0
2015-Aug-16 10:33N 46°30' W 084°24'0 0.0
2015-Aug-16 09:33N 46°30' W 084°24'0 0.0
2015-Aug-16 08:33N 46°30' W 084°24'0 0.0
2015-Aug-16 07:29N 46°30' W 084°24'0 0.0
2015-Aug-16 06:06N 46°30' W 084°24'0 0.0
2015-Aug-16 05:32N 46°30' W 084°24'0 0.0
2015-Aug-16 04:30N 46°30' W 084°24'0 0.0
2015-Aug-16 03:32N 46°30' W 084°24'0 0.0
2015-Aug-16 02:33N 46°30' W 084°24'0 0.0
2015-Aug-16 01:15N 46°30' W 084°24'0 0.0
2015-Aug-16 00:33N 46°30' W 084°24'0 0.0
2015-Aug-15 23:24N 46°30' W 084°24'0 0.0
2015-Aug-15 16:33N 46°30' W 084°24'0 0.0
2015-Aug-15 15:33N 46°30' W 084°24'0 0.1
2015-Aug-15 14:33N 46°30' W 084°24'9 3.6
2015-Aug-15 12:07N 46°24' W 084°14'5 8.7
2015-Aug-15 11:33N 46°20' W 084°11'7 6.5
2015-Aug-15 10:33N 46°14' W 084°06'9 8.8
2015-Aug-15 09:33N 46°07' W 084°01'9 9.5
2015-Aug-15 08:33N 45°59' W 083°53'1110.9
2015-Aug-15 07:33N 45°48' W 083°50'8 8.0
2015-Aug-15 06:33N 45°41' W 083°44'4 4.0
2015-Aug-15 05:33N 45°43' W 083°49'38 2.7
2015-Aug-14 15:12N 46°02' W 083°02'710.1
2015-Aug-14 14:31N 46°05' W 082°53'8 8.0
2015-Aug-14 13:31N 46°08' W 082°42'  
Track history (hours):
 
Tides and Currents Weather Stations Pressure Air Temp Water Temp Dewpoint Dewpoint Depression Visibility Wind Speed Wind Dir Waves Ship Positions

Algosoo

Last reported at 2015-Aug-22 11:33 UTC. Time now 2015-Aug-30 09:59 UTC.
Position N 42°23' W 080°27'.

Length 223 m; draft 8 m.

Type: Cargo ship. MMSI: 316001799.

Date/timePositionNaut miles runAvg speedWind from/ knotsBaromVisibWave heightAir tempDewpointWater temp
2015-Aug-22 11:33N 42°23' W 080°27'10 9.9
2015-Aug-22 10:30N 42°27' W 080°14'9 9.5
2015-Aug-22 09:33N 42°30' W 080°03'19 9.3
2015-Aug-22 07:29N 42°40' W 079°40'29 6.9
2015-Aug-22 03:19N 43°01' W 079°13'5 7.1
2015-Aug-22 02:33N 43°06' W 079°12'2 1.8
2015-Aug-22 01:33N 43°08' W 079°12'0 0.2
2015-Aug-22 00:33N 43°08' W 079°12'1 1.2
2015-Aug-21 23:33N 43°09' W 079°12'2 2.1
2015-Aug-21 22:33N 43°11' W 079°12'0 0.3
2015-Aug-21 21:33N 43°12' W 079°12'2 1.5
2015-Aug-21 20:33N 43°13' W 079°13'1 0.6
2015-Aug-21 19:34N 43°14' W 079°13'0 0.0
2015-Aug-21 18:33N 43°14' W 079°13'8 7.6
2015-Aug-21 17:33N 43°20' W 079°19'15 0.5
2015-Aug-20 11:10N 43°28' W 079°36'1 1.3
2015-Aug-20 10:23N 43°27' W 079°35'8 9.1
2015-Aug-20 09:33N 43°23' W 079°27'1010.3
2015-Aug-20 08:33N 43°16' W 079°16'4 4.0
2015-Aug-20 07:33N 43°13' W 079°13'1 1.5
2015-Aug-20 06:33N 43°12' W 079°12'1 1.5
2015-Aug-20 05:33N 43°10' W 079°12'1 0.9
2015-Aug-20 04:33N 43°09' W 079°12'1 1.1
2015-Aug-20 03:33N 43°08' W 079°12'0 0.3
2015-Aug-20 02:33N 43°08' W 079°12'1 0.5
2015-Aug-20 01:34N 43°07' W 079°12'2 1.9
2015-Aug-20 00:33N 43°06' W 079°12'34 4.7
2015-Aug-19 17:24N 42°37' W 079°38'910.7
2015-Aug-19 16:32N 42°32' W 079°48'1310.4
2015-Aug-19 15:14N 42°25' W 080°04'307 6.5
2015-Aug-17 16:05N 46°30' W 084°22'0 0.0
2015-Aug-17 15:30N 46°30' W 084°22'1 0.3
2015-Aug-17 12:26N 46°30' W 084°23'1 0.6
2015-Aug-17 11:33N 46°30' W 084°24'0 0.0
2015-Aug-17 10:32N 46°30' W 084°24'0 0.0
2015-Aug-16 20:21N 46°30' W 084°24'0 0.0
2015-Aug-16 19:30N 46°30' W 084°24'0 0.0
2015-Aug-16 18:28N 46°30' W 084°24'0 0.0
2015-Aug-16 17:25N 46°30' W 084°24'0 0.0
2015-Aug-16 14:31N 46°30' W 084°24'0 0.0
2015-Aug-16 13:27N 46°30' W 084°24'0 0.0
2015-Aug-16 12:32N 46°30' W 084°24'0 0.0
2015-Aug-16 11:33N 46°30' W 084°24'0 0.0
2015-Aug-16 10:33N 46°30' W 084°24'0 0.0
2015-Aug-16 09:33N 46°30' W 084°24'0 0.0
2015-Aug-16 08:33N 46°30' W 084°24'0 0.0
2015-Aug-16 07:29N 46°30' W 084°24'0 0.0
2015-Aug-16 06:06N 46°30' W 084°24'0 0.0
2015-Aug-16 05:32N 46°30' W 084°24'0 0.0
2015-Aug-16 04:30N 46°30' W 084°24'0 0.0
2015-Aug-16 03:32N 46°30' W 084°24'0 0.0
2015-Aug-16 02:33N 46°30' W 084°24'0 0.0
2015-Aug-16 01:15N 46°30' W 084°24'0 0.0
2015-Aug-16 00:33N 46°30' W 084°24'0 0.0
2015-Aug-15 23:24N 46°30' W 084°24'0 0.0
2015-Aug-15 16:33N 46°30' W 084°24'0 0.0
2015-Aug-15 15:33N 46°30' W 084°24'0 0.1
2015-Aug-15 14:33N 46°30' W 084°24'9 3.6
2015-Aug-15 12:07N 46°24' W 084°14'5 8.7
2015-Aug-15 11:33N 46°20' W 084°11'7 6.5
2015-Aug-15 10:33N 46°14' W 084°06'9 8.8
2015-Aug-15 09:33N 46°07' W 084°01'9 9.5
2015-Aug-15 08:33N 45°59' W 083°53'1110.9
2015-Aug-15 07:33N 45°48' W 083°50'8 8.0
2015-Aug-15 06:33N 45°41' W 083°44'4 4.0
2015-Aug-15 05:33N 45°43' W 083°49'38 2.7
2015-Aug-14 15:12N 46°02' W 083°02'710.1
2015-Aug-14 14:31N 46°05' W 082°53'8 8.0
2015-Aug-14 13:31N 46°08' W 082°42'  

Dump ship's entire track history